sensor_id;sensor_type;location;lat;lon;timestamp;P1;durP1;ratioP1;P2;durP2;ratioP2
36445;SDS011;22472;50.848;-1.216;2023-08-20T00:01:34;21.40;;;3.00;;
36445;SDS011;22472;50.848;-1.216;2023-08-20T00:04:02;17.25;;;3.22;;
36445;SDS011;22472;50.848;-1.216;2023-08-20T00:06:30;17.83;;;3.08;;
36445;SDS011;22472;50.848;-1.216;2023-08-20T00:08:57;20.42;;;3.63;;
36445;SDS011;22472;50.848;-1.216;2023-08-20T00:11:25;19.05;;;3.13;;
36445;SDS011;22472;50.848;-1.216;2023-08-20T00:13:52;16.50;;;2.90;;
36445;SDS011;22472;50.848;-1.216;2023-08-20T00:16:19;19.00;;;2.95;;
36445;SDS011;22472;50.848;-1.216;2023-08-20T00:18:47;17.73;;;2.80;;
36445;SDS011;22472;50.848;-1.216;2023-08-20T00:21:16;18.90;;;3.10;;
36445;SDS011;22472;50.848;-1.216;2023-08-20T00:23:43;15.75;;;2.85;;
36445;SDS011;22472;50.848;-1.216;2023-08-20T00:26:11;15.52;;;2.80;;
36445;SDS011;22472;50.848;-1.216;2023-08-20T00:28:38;21.80;;;3.10;;
36445;SDS011;22472;50.848;-1.216;2023-08-20T00:31:05;19.27;;;3.17;;
36445;SDS011;22472;50.848;-1.216;2023-08-20T00:33:33;24.23;;;3.85;;
36445;SDS011;22472;50.848;-1.216;2023-08-20T00:36:00;20.10;;;3.40;;
36445;SDS011;22472;50.848;-1.216;2023-08-20T00:38:29;20.85;;;3.33;;
36445;SDS011;22472;50.848;-1.216;2023-08-20T00:40:56;24.15;;;3.42;;
36445;SDS011;22472;50.848;-1.216;2023-08-20T00:43:24;23.98;;;3.92;;
36445;SDS011;22472;50.848;-1.216;2023-08-20T00:45:51;20.90;;;3.67;;
36445;SDS011;22472;50.848;-1.216;2023-08-20T00:48:19;21.88;;;3.63;;
36445;SDS011;22472;50.848;-1.216;2023-08-20T00:50:46;24.42;;;3.90;;
36445;SDS011;22472;50.848;-1.216;2023-08-20T00:53:13;25.23;;;4.03;;
36445;SDS011;22472;50.848;-1.216;2023-08-20T00:55:42;22.73;;;3.75;;
36445;SDS011;22472;50.848;-1.216;2023-08-20T00:58:10;26.48;;;4.85;;
36445;SDS011;22472;50.848;-1.216;2023-08-20T01:00:38;27.85;;;4.45;;
36445;SDS011;22472;50.848;-1.216;2023-08-20T01:03:06;23.58;;;4.20;;
36445;SDS011;22472;50.848;-1.216;2023-08-20T01:05:43;23.58;;;4.45;;
36445;SDS011;22472;50.848;-1.216;2023-08-20T01:08:16;24.38;;;4.53;;
36445;SDS011;22472;50.848;-1.216;2023-08-20T01:10:49;28.58;;;4.32;;
36445;SDS011;22472;50.848;-1.216;2023-08-20T01:13:18;29.05;;;4.57;;
36445;SDS011;22472;50.848;-1.216;2023-08-20T01:15:45;24.73;;;4.28;;
36445;SDS011;22472;50.848;-1.216;2023-08-20T01:18:13;19.85;;;3.85;;
36445;SDS011;22472;50.848;-1.216;2023-08-20T01:20:41;28.77;;;4.80;;
36445;SDS011;22472;50.848;-1.216;2023-08-20T01:23:21;29.50;;;4.22;;
36445;SDS011;22472;50.848;-1.216;2023-08-20T01:25:58;32.05;;;4.45;;
36445;SDS011;22472;50.848;-1.216;2023-08-20T01:28:33;25.70;;;4.35;;
36445;SDS011;22472;50.848;-1.216;2023-08-20T01:31:04;30.52;;;4.82;;
36445;SDS011;22472;50.848;-1.216;2023-08-20T01:33:32;20.70;;;3.92;;
36445;SDS011;22472;50.848;-1.216;2023-08-20T01:36:00;25.92;;;4.85;;
36445;SDS011;22472;50.848;-1.216;2023-08-20T01:38:27;29.00;;;4.18;;
36445;SDS011;22472;50.848;-1.216;2023-08-20T01:40:54;20.75;;;4.38;;
36445;SDS011;22472;50.848;-1.216;2023-08-20T01:43:22;24.50;;;4.50;;
36445;SDS011;22472;50.848;-1.216;2023-08-20T01:45:50;28.35;;;5.43;;
36445;SDS011;22472;50.848;-1.216;2023-08-20T01:48:18;26.25;;;4.65;;
36445;SDS011;22472;50.848;-1.216;2023-08-20T01:50:45;26.92;;;4.55;;
36445;SDS011;22472;50.848;-1.216;2023-08-20T01:53:12;26.40;;;4.75;;
36445;SDS011;22472;50.848;-1.216;2023-08-20T01:55:40;29.63;;;4.72;;
36445;SDS011;22472;50.848;-1.216;2023-08-20T01:58:07;22.80;;;4.30;;
36445;SDS011;22472;50.848;-1.216;2023-08-20T02:00:34;25.15;;;3.85;;
36445;SDS011;22472;50.848;-1.216;2023-08-20T02:06:06;21.92;;;3.75;;
36445;SDS011;22472;50.848;-1.216;2023-08-20T02:08:33;18.90;;;3.65;;
36445;SDS011;22472;50.848;-1.216;2023-08-20T02:11:01;20.80;;;3.95;;
36445;SDS011;22472;50.848;-1.216;2023-08-20T02:13:28;17.42;;;3.08;;
36445;SDS011;22472;50.848;-1.216;2023-08-20T02:15:59;16.73;;;2.92;;
36445;SDS011;22472;50.848;-1.216;2023-08-20T02:18:26;16.50;;;2.92;;
36445;SDS011;22472;50.848;-1.216;2023-08-20T02:20:54;18.80;;;3.22;;
36445;SDS011;22472;50.848;-1.216;2023-08-20T02:23:23;23.00;;;3.67;;
36445;SDS011;22472;50.848;-1.216;2023-08-20T02:25:50;20.20;;;3.50;;
36445;SDS011;22472;50.848;-1.216;2023-08-20T02:28:17;20.70;;;4.03;;
36445;SDS011;22472;50.848;-1.216;2023-08-20T02:30:45;22.98;;;3.58;;
36445;SDS011;22472;50.848;-1.216;2023-08-20T02:33:15;23.75;;;3.53;;
36445;SDS011;22472;50.848;-1.216;2023-08-20T02:35:43;25.33;;;4.70;;
36445;SDS011;22472;50.848;-1.216;2023-08-20T02:38:10;25.48;;;4.72;;
36445;SDS011;22472;50.848;-1.216;2023-08-20T02:40:41;23.70;;;3.90;;
36445;SDS011;22472;50.848;-1.216;2023-08-20T02:43:09;25.95;;;4.65;;
36445;SDS011;22472;50.848;-1.216;2023-08-20T02:45:39;24.45;;;4.00;;
36445;SDS011;22472;50.848;-1.216;2023-08-20T02:48:08;25.75;;;4.32;;
36445;SDS011;22472;50.848;-1.216;2023-08-20T02:50:35;24.20;;;3.97;;
36445;SDS011;22472;50.848;-1.216;2023-08-20T02:53:03;22.52;;;4.22;;
36445;SDS011;22472;50.848;-1.216;2023-08-20T02:55:30;24.30;;;3.78;;
36445;SDS011;22472;50.848;-1.216;2023-08-20T02:57:59;20.55;;;4.05;;
36445;SDS011;22472;50.848;-1.216;2023-08-20T03:00:27;20.50;;;4.20;;
36445;SDS011;22472;50.848;-1.216;2023-08-20T03:02:55;22.92;;;4.00;;
36445;SDS011;22472;50.848;-1.216;2023-08-20T03:05:23;25.30;;;4.10;;
36445;SDS011;22472;50.848;-1.216;2023-08-20T03:07:50;19.20;;;4.03;;
36445;SDS011;22472;50.848;-1.216;2023-08-20T03:10:17;19.83;;;3.67;;
36445;SDS011;22472;50.848;-1.216;2023-08-20T03:12:45;21.95;;;4.40;;
36445;SDS011;22472;50.848;-1.216;2023-08-20T03:15:13;20.95;;;4.28;;
36445;SDS011;22472;50.848;-1.216;2023-08-20T03:17:40;18.33;;;3.55;;
36445;SDS011;22472;50.848;-1.216;2023-08-20T03:20:08;20.10;;;4.05;;
36445;SDS011;22472;50.848;-1.216;2023-08-20T03:22:36;20.25;;;4.28;;
36445;SDS011;22472;50.848;-1.216;2023-08-20T03:25:04;22.02;;;4.28;;
36445;SDS011;22472;50.848;-1.216;2023-08-20T03:27:31;25.55;;;4.80;;
36445;SDS011;22472;50.848;-1.216;2023-08-20T03:29:58;18.08;;;4.07;;
36445;SDS011;22472;50.848;-1.216;2023-08-20T03:32:27;24.35;;;4.45;;
36445;SDS011;22472;50.848;-1.216;2023-08-20T03:34:54;20.25;;;4.10;;
36445;SDS011;22472;50.848;-1.216;2023-08-20T03:37:24;21.95;;;4.40;;
36445;SDS011;22472;50.848;-1.216;2023-08-20T03:39:51;23.10;;;4.65;;
36445;SDS011;22472;50.848;-1.216;2023-08-20T03:42:19;20.77;;;4.50;;
36445;SDS011;22472;50.848;-1.216;2023-08-20T03:44:46;22.55;;;4.30;;
36445;SDS011;22472;50.848;-1.216;2023-08-20T03:47:13;24.35;;;4.43;;
36445;SDS011;22472;50.848;-1.216;2023-08-20T03:49:42;23.15;;;4.78;;
36445;SDS011;22472;50.848;-1.216;2023-08-20T03:52:09;20.90;;;4.68;;
36445;SDS011;22472;50.848;-1.216;2023-08-20T03:54:36;24.13;;;4.43;;
36445;SDS011;22472;50.848;-1.216;2023-08-20T03:57:04;20.88;;;4.20;;
36445;SDS011;22472;50.848;-1.216;2023-08-20T03:59:31;18.17;;;3.78;;
36445;SDS011;22472;50.848;-1.216;2023-08-20T04:01:58;18.73;;;4.30;;
36445;SDS011;22472;50.848;-1.216;2023-08-20T04:04:26;24.70;;;4.70;;
36445;SDS011;22472;50.848;-1.216;2023-08-20T04:06:54;21.73;;;4.57;;
36445;SDS011;22472;50.848;-1.216;2023-08-20T04:09:22;21.45;;;5.70;;
36445;SDS011;22472;50.848;-1.216;2023-08-20T04:11:49;23.67;;;5.95;;
36445;SDS011;22472;50.848;-1.216;2023-08-20T04:14:16;24.88;;;6.00;;
36445;SDS011;22472;50.848;-1.216;2023-08-20T04:16:43;20.13;;;5.55;;
36445;SDS011;22472;50.848;-1.216;2023-08-20T04:19:11;15.90;;;4.00;;
36445;SDS011;22472;50.848;-1.216;2023-08-20T04:21:38;19.83;;;5.45;;
36445;SDS011;22472;50.848;-1.216;2023-08-20T04:24:07;18.95;;;5.53;;
36445;SDS011;22472;50.848;-1.216;2023-08-20T04:26:34;20.75;;;6.10;;
36445;SDS011;22472;50.848;-1.216;2023-08-20T04:29:02;18.67;;;5.18;;
36445;SDS011;22472;50.848;-1.216;2023-08-20T04:31:29;18.50;;;6.22;;
36445;SDS011;22472;50.848;-1.216;2023-08-20T04:33:56;20.83;;;5.30;;
36445;SDS011;22472;50.848;-1.216;2023-08-20T04:36:23;23.38;;;5.25;;
36445;SDS011;22472;50.848;-1.216;2023-08-20T04:38:50;20.40;;;4.43;;
36445;SDS011;22472;50.848;-1.216;2023-08-20T04:41:19;19.70;;;4.97;;
36445;SDS011;22472;50.848;-1.216;2023-08-20T04:43:46;21.00;;;4.97;;
36445;SDS011;22472;50.848;-1.216;2023-08-20T04:46:13;16.05;;;4.18;;
36445;SDS011;22472;50.848;-1.216;2023-08-20T04:48:41;18.23;;;4.43;;
36445;SDS011;22472;50.848;-1.216;2023-08-20T04:51:08;17.27;;;4.53;;
36445;SDS011;22472;50.848;-1.216;2023-08-20T04:53:36;21.77;;;4.80;;
36445;SDS011;22472;50.848;-1.216;2023-08-20T04:56:03;15.60;;;4.63;;
36445;SDS011;22472;50.848;-1.216;2023-08-20T04:58:32;14.07;;;4.35;;
36445;SDS011;22472;50.848;-1.216;2023-08-20T05:00:59;14.32;;;4.20;;
36445;SDS011;22472;50.848;-1.216;2023-08-20T05:03:26;17.75;;;4.38;;
36445;SDS011;22472;50.848;-1.216;2023-08-20T05:05:54;22.40;;;5.15;;
36445;SDS011;22472;50.848;-1.216;2023-08-20T05:08:21;25.02;;;5.60;;
36445;SDS011;22472;50.848;-1.216;2023-08-20T05:10:49;21.92;;;5.10;;
36445;SDS011;22472;50.848;-1.216;2023-08-20T05:13:16;15.90;;;4.68;;
36445;SDS011;22472;50.848;-1.216;2023-08-20T05:15:47;19.45;;;4.63;;
36445;SDS011;22472;50.848;-1.216;2023-08-20T05:18:14;24.73;;;4.80;;
36445;SDS011;22472;50.848;-1.216;2023-08-20T05:20:41;23.25;;;4.20;;
36445;SDS011;22472;50.848;-1.216;2023-08-20T05:23:09;19.70;;;4.65;;
36445;SDS011;22472;50.848;-1.216;2023-08-20T05:25:36;20.35;;;4.07;;
36445;SDS011;22472;50.848;-1.216;2023-08-20T05:28:03;23.80;;;5.05;;
36445;SDS011;22472;50.848;-1.216;2023-08-20T05:30:31;21.75;;;5.22;;
36445;SDS011;22472;50.848;-1.216;2023-08-20T05:32:59;15.38;;;4.22;;
36445;SDS011;22472;50.848;-1.216;2023-08-20T05:35:27;16.67;;;4.35;;
36445;SDS011;22472;50.848;-1.216;2023-08-20T05:37:54;18.48;;;4.63;;
36445;SDS011;22472;50.848;-1.216;2023-08-20T05:40:21;19.77;;;4.22;;
36445;SDS011;22472;50.848;-1.216;2023-08-20T05:42:49;25.60;;;6.15;;
36445;SDS011;22472;50.848;-1.216;2023-08-20T05:45:16;17.52;;;3.85;;
36445;SDS011;22472;50.848;-1.216;2023-08-20T05:47:43;14.30;;;3.90;;
36445;SDS011;22472;50.848;-1.216;2023-08-20T05:50:12;17.02;;;3.35;;
36445;SDS011;22472;50.848;-1.216;2023-08-20T05:52:39;13.80;;;2.60;;
36445;SDS011;22472;50.848;-1.216;2023-08-20T05:55:07;12.13;;;2.42;;
36445;SDS011;22472;50.848;-1.216;2023-08-20T05:57:35;14.20;;;2.78;;
36445;SDS011;22472;50.848;-1.216;2023-08-20T06:00:03;15.57;;;2.95;;
36445;SDS011;22472;50.848;-1.216;2023-08-20T06:02:30;12.90;;;2.53;;
36445;SDS011;22472;50.848;-1.216;2023-08-20T06:04:57;16.10;;;3.08;;
36445;SDS011;22472;50.848;-1.216;2023-08-20T06:07:26;12.50;;;2.40;;
36445;SDS011;22472;50.848;-1.216;2023-08-20T06:09:53;9.48;;;2.03;;
36445;SDS011;22472;50.848;-1.216;2023-08-20T06:12:21;12.63;;;2.58;;
36445;SDS011;22472;50.848;-1.216;2023-08-20T06:14:49;14.70;;;2.78;;
36445;SDS011;22472;50.848;-1.216;2023-08-20T06:17:16;10.90;;;2.30;;
36445;SDS011;22472;50.848;-1.216;2023-08-20T06:19:43;14.30;;;2.55;;
36445;SDS011;22472;50.848;-1.216;2023-08-20T06:22:11;13.07;;;2.47;;
36445;SDS011;22472;50.848;-1.216;2023-08-20T06:24:39;13.02;;;2.50;;
36445;SDS011;22472;50.848;-1.216;2023-08-20T06:27:06;11.20;;;2.08;;
36445;SDS011;22472;50.848;-1.216;2023-08-20T06:29:34;13.02;;;2.33;;
36445;SDS011;22472;50.848;-1.216;2023-08-20T06:32:01;15.98;;;2.17;;
36445;SDS011;22472;50.848;-1.216;2023-08-20T06:34:28;10.27;;;1.92;;
36445;SDS011;22472;50.848;-1.216;2023-08-20T06:36:56;12.80;;;2.20;;
36445;SDS011;22472;50.848;-1.216;2023-08-20T06:39:23;13.50;;;2.38;;
36445;SDS011;22472;50.848;-1.216;2023-08-20T06:41:52;9.55;;;2.08;;
36445;SDS011;22472;50.848;-1.216;2023-08-20T06:44:19;12.73;;;2.03;;
36445;SDS011;22472;50.848;-1.216;2023-08-20T06:46:46;7.82;;;1.98;;
36445;SDS011;22472;50.848;-1.216;2023-08-20T06:49:13;11.73;;;1.98;;
36445;SDS011;22472;50.848;-1.216;2023-08-20T06:51:41;12.25;;;2.25;;
36445;SDS011;22472;50.848;-1.216;2023-08-20T06:54:08;13.15;;;2.00;;
36445;SDS011;22472;50.848;-1.216;2023-08-20T06:56:35;12.27;;;2.30;;
36445;SDS011;22472;50.848;-1.216;2023-08-20T06:59:04;11.50;;;1.92;;
36445;SDS011;22472;50.848;-1.216;2023-08-20T07:01:31;9.80;;;1.98;;
36445;SDS011;22472;50.848;-1.216;2023-08-20T07:03:58;9.63;;;1.80;;
36445;SDS011;22472;50.848;-1.216;2023-08-20T07:06:26;12.40;;;1.80;;
36445;SDS011;22472;50.848;-1.216;2023-08-20T07:08:53;14.60;;;2.58;;
36445;SDS011;22472;50.848;-1.216;2023-08-20T07:11:21;10.70;;;2.20;;
36445;SDS011;22472;50.848;-1.216;2023-08-20T07:13:48;12.93;;;2.00;;
36445;SDS011;22472;50.848;-1.216;2023-08-20T07:16:16;11.48;;;1.98;;
36445;SDS011;22472;50.848;-1.216;2023-08-20T07:18:44;10.70;;;2.03;;
36445;SDS011;22472;50.848;-1.216;2023-08-20T07:21:11;10.27;;;1.55;;
36445;SDS011;22472;50.848;-1.216;2023-08-20T07:23:38;7.20;;;1.63;;
36445;SDS011;22472;50.848;-1.216;2023-08-20T07:26:06;10.23;;;1.50;;
36445;SDS011;22472;50.848;-1.216;2023-08-20T07:28:34;9.90;;;1.52;;
36445;SDS011;22472;50.848;-1.216;2023-08-20T07:31:20;10.77;;;1.60;;
36445;SDS011;22472;50.848;-1.216;2023-08-20T07:33:48;8.70;;;1.45;;
36445;SDS011;22472;50.848;-1.216;2023-08-20T07:36:15;7.45;;;1.67;;
36445;SDS011;22472;50.848;-1.216;2023-08-20T07:38:43;12.70;;;1.55;;
36445;SDS011;22472;50.848;-1.216;2023-08-20T07:41:11;9.30;;;1.70;;
36445;SDS011;22472;50.848;-1.216;2023-08-20T07:43:38;8.20;;;1.55;;
36445;SDS011;22472;50.848;-1.216;2023-08-20T07:46:06;6.78;;;1.60;;
36445;SDS011;22472;50.848;-1.216;2023-08-20T07:48:34;9.75;;;1.83;;
36445;SDS011;22472;50.848;-1.216;2023-08-20T07:51:02;12.30;;;1.98;;
36445;SDS011;22472;50.848;-1.216;2023-08-20T07:53:30;9.25;;;1.38;;
36445;SDS011;22472;50.848;-1.216;2023-08-20T07:55:57;8.77;;;1.60;;
36445;SDS011;22472;50.848;-1.216;2023-08-20T07:58:25;9.25;;;1.23;;
36445;SDS011;22472;50.848;-1.216;2023-08-20T08:00:53;8.82;;;1.38;;
36445;SDS011;22472;50.848;-1.216;2023-08-20T08:03:21;9.25;;;1.25;;
36445;SDS011;22472;50.848;-1.216;2023-08-20T08:05:50;7.90;;;1.38;;
36445;SDS011;22472;50.848;-1.216;2023-08-20T08:08:19;9.43;;;1.23;;
36445;SDS011;22472;50.848;-1.216;2023-08-20T08:10:46;8.63;;;1.10;;
36445;SDS011;22472;50.848;-1.216;2023-08-20T08:13:14;11.88;;;1.40;;
36445;SDS011;22472;50.848;-1.216;2023-08-20T08:15:41;7.85;;;1.25;;
36445;SDS011;22472;50.848;-1.216;2023-08-20T08:18:09;7.25;;;1.10;;
36445;SDS011;22472;50.848;-1.216;2023-08-20T08:20:36;6.28;;;1.17;;
36445;SDS011;22472;50.848;-1.216;2023-08-20T08:23:04;7.63;;;1.42;;
36445;SDS011;22472;50.848;-1.216;2023-08-20T08:25:32;9.70;;;1.20;;
36445;SDS011;22472;50.848;-1.216;2023-08-20T08:27:59;7.97;;;1.08;;
36445;SDS011;22472;50.848;-1.216;2023-08-20T08:30:26;6.70;;;0.90;;
36445;SDS011;22472;50.848;-1.216;2023-08-20T08:32:54;6.82;;;1.08;;
36445;SDS011;22472;50.848;-1.216;2023-08-20T08:35:21;6.32;;;1.00;;
36445;SDS011;22472;50.848;-1.216;2023-08-20T08:37:49;5.97;;;1.00;;
36445;SDS011;22472;50.848;-1.216;2023-08-20T08:40:17;4.07;;;0.63;;
36445;SDS011;22472;50.848;-1.216;2023-08-20T08:42:46;6.30;;;0.90;;
36445;SDS011;22472;50.848;-1.216;2023-08-20T08:45:16;6.05;;;0.95;;
36445;SDS011;22472;50.848;-1.216;2023-08-20T08:47:43;6.57;;;1.23;;
36445;SDS011;22472;50.848;-1.216;2023-08-20T08:50:10;4.28;;;1.00;;
36445;SDS011;22472;50.848;-1.216;2023-08-20T08:52:38;8.13;;;1.15;;
36445;SDS011;22472;50.848;-1.216;2023-08-20T08:55:06;5.00;;;0.90;;
36445;SDS011;22472;50.848;-1.216;2023-08-20T08:57:35;4.30;;;0.70;;
36445;SDS011;22472;50.848;-1.216;2023-08-20T09:00:03;4.00;;;0.77;;
36445;SDS011;22472;50.848;-1.216;2023-08-20T09:02:30;6.00;;;0.65;;
36445;SDS011;22472;50.848;-1.216;2023-08-20T09:04:58;5.00;;;0.70;;
36445;SDS011;22472;50.848;-1.216;2023-08-20T09:07:25;4.65;;;0.60;;
36445;SDS011;22472;50.848;-1.216;2023-08-20T09:09:56;6.15;;;0.70;;
36445;SDS011;22472;50.848;-1.216;2023-08-20T09:12:24;7.80;;;0.85;;
36445;SDS011;22472;50.848;-1.216;2023-08-20T09:14:53;7.00;;;1.13;;
36445;SDS011;22472;50.848;-1.216;2023-08-20T09:17:24;10.05;;;1.17;;
36445;SDS011;22472;50.848;-1.216;2023-08-20T09:22:20;9.73;;;1.25;;
36445;SDS011;22472;50.848;-1.216;2023-08-20T09:24:52;7.35;;;1.00;;
36445;SDS011;22472;50.848;-1.216;2023-08-20T09:27:19;9.02;;;1.00;;
36445;SDS011;22472;50.848;-1.216;2023-08-20T09:29:47;5.75;;;0.77;;
36445;SDS011;22472;50.848;-1.216;2023-08-20T09:32:16;7.53;;;1.05;;
36445;SDS011;22472;50.848;-1.216;2023-08-20T09:34:44;6.15;;;0.85;;
36445;SDS011;22472;50.848;-1.216;2023-08-20T09:37:12;6.03;;;0.80;;
36445;SDS011;22472;50.848;-1.216;2023-08-20T09:39:39;7.85;;;1.00;;
36445;SDS011;22472;50.848;-1.216;2023-08-20T09:42:07;5.43;;;0.60;;
36445;SDS011;22472;50.848;-1.216;2023-08-20T09:44:35;6.55;;;0.90;;
36445;SDS011;22472;50.848;-1.216;2023-08-20T09:47:05;7.93;;;1.15;;
36445;SDS011;22472;50.848;-1.216;2023-08-20T09:49:35;8.75;;;1.02;;
36445;SDS011;22472;50.848;-1.216;2023-08-20T09:52:03;8.07;;;1.20;;
36445;SDS011;22472;50.848;-1.216;2023-08-20T09:54:34;8.30;;;1.27;;
36445;SDS011;22472;50.848;-1.216;2023-08-20T09:57:02;9.10;;;1.20;;
36445;SDS011;22472;50.848;-1.216;2023-08-20T09:59:33;6.43;;;0.90;;
36445;SDS011;22472;50.848;-1.216;2023-08-20T10:02:01;8.43;;;1.20;;
36445;SDS011;22472;50.848;-1.216;2023-08-20T10:04:29;5.80;;;0.80;;
36445;SDS011;22472;50.848;-1.216;2023-08-20T10:06:58;6.55;;;0.95;;
36445;SDS011;22472;50.848;-1.216;2023-08-20T10:09:25;8.63;;;1.00;;
36445;SDS011;22472;50.848;-1.216;2023-08-20T10:11:53;5.72;;;1.00;;
36445;SDS011;22472;50.848;-1.216;2023-08-20T10:14:20;6.53;;;0.80;;
36445;SDS011;22472;50.848;-1.216;2023-08-20T10:16:47;4.65;;;0.90;;
36445;SDS011;22472;50.848;-1.216;2023-08-20T10:19:15;6.57;;;0.90;;
36445;SDS011;22472;50.848;-1.216;2023-08-20T10:21:43;6.38;;;0.70;;
36445;SDS011;22472;50.848;-1.216;2023-08-20T10:24:17;4.80;;;0.77;;
36445;SDS011;22472;50.848;-1.216;2023-08-20T10:26:45;5.80;;;0.90;;
36445;SDS011;22472;50.848;-1.216;2023-08-20T10:31:59;6.60;;;0.80;;
36445;SDS011;22472;50.848;-1.216;2023-08-20T10:34:32;7.10;;;0.90;;
36445;SDS011;22472;50.848;-1.216;2023-08-20T10:37:01;5.65;;;0.73;;
36445;SDS011;22472;50.848;-1.216;2023-08-20T10:39:30;3.92;;;0.70;;
36445;SDS011;22472;50.848;-1.216;2023-08-20T10:42:21;6.22;;;0.75;;
36445;SDS011;22472;50.848;-1.216;2023-08-20T10:44:57;3.78;;;0.57;;
36445;SDS011;22472;50.848;-1.216;2023-08-20T10:47:25;6.50;;;0.77;;
36445;SDS011;22472;50.848;-1.216;2023-08-20T10:49:52;5.50;;;0.88;;
36445;SDS011;22472;50.848;-1.216;2023-08-20T10:52:19;5.90;;;0.50;;
36445;SDS011;22472;50.848;-1.216;2023-08-20T10:54:50;6.60;;;0.88;;
36445;SDS011;22472;50.848;-1.216;2023-08-20T10:57:17;5.82;;;0.60;;
36445;SDS011;22472;50.848;-1.216;2023-08-20T10:59:55;5.37;;;0.60;;
36445;SDS011;22472;50.848;-1.216;2023-08-20T11:02:23;6.82;;;0.60;;
36445;SDS011;22472;50.848;-1.216;2023-08-20T11:04:51;6.18;;;0.73;;
36445;SDS011;22472;50.848;-1.216;2023-08-20T11:07:19;3.95;;;0.57;;
36445;SDS011;22472;50.848;-1.216;2023-08-20T11:09:47;7.00;;;0.70;;
36445;SDS011;22472;50.848;-1.216;2023-08-20T11:12:16;4.78;;;0.60;;
36445;SDS011;22472;50.848;-1.216;2023-08-20T11:14:43;5.53;;;0.52;;
36445;SDS011;22472;50.848;-1.216;2023-08-20T11:17:10;4.93;;;0.73;;
36445;SDS011;22472;50.848;-1.216;2023-08-20T11:19:38;3.75;;;0.40;;
36445;SDS011;22472;50.848;-1.216;2023-08-20T11:22:05;4.28;;;0.80;;
36445;SDS011;22472;50.848;-1.216;2023-08-20T11:24:33;5.05;;;0.55;;
36445;SDS011;22472;50.848;-1.216;2023-08-20T11:27:04;5.78;;;0.63;;
36445;SDS011;22472;50.848;-1.216;2023-08-20T11:29:33;5.38;;;0.60;;
36445;SDS011;22472;50.848;-1.216;2023-08-20T11:32:00;4.38;;;0.68;;
36445;SDS011;22472;50.848;-1.216;2023-08-20T11:34:28;5.30;;;0.82;;
36445;SDS011;22472;50.848;-1.216;2023-08-20T11:36:56;4.15;;;0.70;;
36445;SDS011;22472;50.848;-1.216;2023-08-20T11:39:23;6.18;;;0.60;;
36445;SDS011;22472;50.848;-1.216;2023-08-20T11:41:50;5.70;;;0.80;;
36445;SDS011;22472;50.848;-1.216;2023-08-20T11:44:21;6.38;;;0.68;;
36445;SDS011;22472;50.848;-1.216;2023-08-20T11:46:52;4.80;;;0.60;;
36445;SDS011;22472;50.848;-1.216;2023-08-20T11:49:26;10.95;;;0.95;;
36445;SDS011;22472;50.848;-1.216;2023-08-20T11:51:55;7.07;;;0.98;;
36445;SDS011;22472;50.848;-1.216;2023-08-20T11:54:23;4.50;;;0.68;;
36445;SDS011;22472;50.848;-1.216;2023-08-20T11:56:51;6.40;;;0.75;;
36445;SDS011;22472;50.848;-1.216;2023-08-20T11:59:19;7.03;;;0.85;;
36445;SDS011;22472;50.848;-1.216;2023-08-20T12:01:54;6.50;;;0.68;;
36445;SDS011;22472;50.848;-1.216;2023-08-20T12:04:23;5.97;;;0.77;;
36445;SDS011;22472;50.848;-1.216;2023-08-20T12:07:00;5.20;;;0.70;;
36445;SDS011;22472;50.848;-1.216;2023-08-20T12:09:28;6.47;;;0.85;;
36445;SDS011;22472;50.848;-1.216;2023-08-20T12:11:56;4.40;;;0.60;;
36445;SDS011;22472;50.848;-1.216;2023-08-20T12:14:23;5.68;;;0.85;;
36445;SDS011;22472;50.848;-1.216;2023-08-20T12:16:53;4.50;;;0.77;;
36445;SDS011;22472;50.848;-1.216;2023-08-20T12:19:20;9.07;;;1.15;;
36445;SDS011;22472;50.848;-1.216;2023-08-20T12:21:48;8.27;;;1.17;;
36445;SDS011;22472;50.848;-1.216;2023-08-20T12:24:15;17.73;;;8.27;;
36445;SDS011;22472;50.848;-1.216;2023-08-20T12:26:44;6.97;;;2.10;;
36445;SDS011;22472;50.848;-1.216;2023-08-20T12:29:11;6.95;;;1.42;;
36445;SDS011;22472;50.848;-1.216;2023-08-20T12:31:38;5.65;;;0.70;;
36445;SDS011;22472;50.848;-1.216;2023-08-20T12:34:07;5.20;;;0.82;;
36445;SDS011;22472;50.848;-1.216;2023-08-20T12:36:34;7.43;;;1.20;;
36445;SDS011;22472;50.848;-1.216;2023-08-20T12:39:02;6.05;;;0.88;;
36445;SDS011;22472;50.848;-1.216;2023-08-20T12:41:30;7.93;;;2.15;;
36445;SDS011;22472;50.848;-1.216;2023-08-20T12:43:57;10.18;;;2.85;;
36445;SDS011;22472;50.848;-1.216;2023-08-20T12:46:24;4.80;;;1.45;;
36445;SDS011;22472;50.848;-1.216;2023-08-20T12:48:52;7.38;;;1.38;;
36445;SDS011;22472;50.848;-1.216;2023-08-20T12:51:20;5.47;;;1.13;;
36445;SDS011;22472;50.848;-1.216;2023-08-20T12:53:48;7.68;;;1.42;;
36445;SDS011;22472;50.848;-1.216;2023-08-20T12:56:15;9.20;;;2.30;;
36445;SDS011;22472;50.848;-1.216;2023-08-20T12:58:43;6.88;;;1.05;;
36445;SDS011;22472;50.848;-1.216;2023-08-20T13:01:10;7.80;;;2.03;;
36445;SDS011;22472;50.848;-1.216;2023-08-20T13:03:38;8.23;;;1.80;;
36445;SDS011;22472;50.848;-1.216;2023-08-20T13:06:05;6.55;;;0.90;;
36445;SDS011;22472;50.848;-1.216;2023-08-20T13:08:34;4.18;;;0.65;;
36445;SDS011;22472;50.848;-1.216;2023-08-20T13:11:02;4.78;;;0.75;;
36445;SDS011;22472;50.848;-1.216;2023-08-20T13:13:30;4.35;;;0.70;;
36445;SDS011;22472;50.848;-1.216;2023-08-20T13:15:59;5.95;;;0.60;;
36445;SDS011;22472;50.848;-1.216;2023-08-20T13:18:27;8.73;;;0.93;;
36445;SDS011;22472;50.848;-1.216;2023-08-20T13:20:54;6.47;;;0.60;;
36445;SDS011;22472;50.848;-1.216;2023-08-20T13:23:22;6.45;;;0.90;;
36445;SDS011;22472;50.848;-1.216;2023-08-20T13:25:51;4.93;;;0.80;;
36445;SDS011;22472;50.848;-1.216;2023-08-20T13:28:18;5.70;;;0.70;;
36445;SDS011;22472;50.848;-1.216;2023-08-20T13:30:45;5.50;;;0.68;;
36445;SDS011;22472;50.848;-1.216;2023-08-20T13:33:12;4.43;;;0.70;;
36445;SDS011;22472;50.848;-1.216;2023-08-20T13:35:40;7.22;;;0.70;;
36445;SDS011;22472;50.848;-1.216;2023-08-20T13:38:07;3.85;;;0.60;;
36445;SDS011;22472;50.848;-1.216;2023-08-20T13:40:34;6.28;;;0.80;;
36445;SDS011;22472;50.848;-1.216;2023-08-20T13:43:03;4.28;;;0.45;;
36445;SDS011;22472;50.848;-1.216;2023-08-20T13:45:31;5.22;;;0.57;;
36445;SDS011;22472;50.848;-1.216;2023-08-20T13:47:58;5.15;;;0.50;;
36445;SDS011;22472;50.848;-1.216;2023-08-20T13:50:26;3.80;;;0.60;;
36445;SDS011;22472;50.848;-1.216;2023-08-20T13:52:53;3.50;;;0.52;;
36445;SDS011;22472;50.848;-1.216;2023-08-20T13:55:20;5.40;;;0.70;;
36445;SDS011;22472;50.848;-1.216;2023-08-20T13:57:48;7.45;;;0.95;;
36445;SDS011;22472;50.848;-1.216;2023-08-20T14:00:16;6.30;;;0.63;;
36445;SDS011;22472;50.848;-1.216;2023-08-20T14:02:43;5.03;;;0.43;;
36445;SDS011;22472;50.848;-1.216;2023-08-20T14:05:11;5.90;;;0.68;;
36445;SDS011;22472;50.848;-1.216;2023-08-20T14:07:38;5.10;;;0.63;;
36445;SDS011;22472;50.848;-1.216;2023-08-20T14:10:07;6.45;;;0.68;;
36445;SDS011;22472;50.848;-1.216;2023-08-20T14:12:34;7.53;;;0.73;;
36445;SDS011;22472;50.848;-1.216;2023-08-20T14:15:02;6.10;;;0.70;;
36445;SDS011;22472;50.848;-1.216;2023-08-20T14:17:30;5.93;;;0.85;;
36445;SDS011;22472;50.848;-1.216;2023-08-20T14:19:57;6.20;;;0.90;;
36445;SDS011;22472;50.848;-1.216;2023-08-20T14:22:24;6.55;;;0.82;;
36445;SDS011;22472;50.848;-1.216;2023-08-20T14:24:52;6.00;;;0.63;;
36445;SDS011;22472;50.848;-1.216;2023-08-20T14:27:19;5.45;;;0.85;;
36445;SDS011;22472;50.848;-1.216;2023-08-20T14:29:47;7.20;;;0.90;;
36445;SDS011;22472;50.848;-1.216;2023-08-20T14:32:15;8.55;;;1.00;;
36445;SDS011;22472;50.848;-1.216;2023-08-20T14:34:43;8.10;;;1.10;;
36445;SDS011;22472;50.848;-1.216;2023-08-20T14:37:11;9.30;;;1.30;;
36445;SDS011;22472;50.848;-1.216;2023-08-20T14:39:39;5.93;;;0.90;;
36445;SDS011;22472;50.848;-1.216;2023-08-20T14:42:06;7.00;;;1.00;;